Hauptseite
METAR-TAF:

METAR-TAF

Flughäfen :

Shanghai-Pudong, China

Shanghai Pudong International Airport

Breite: 31-07N, Länge: 121-46E, Höhe: 4 m

Beobachtung

Neuester Wetterbericht von vor 39 Minuten, um 16:00 UTC
Wind 8 kt aus Süd/Südost
Temperatur 29°C
Luftfeuchtigkeit 84%
Luftdruck 1006 hPa
Sichtweite 10 km oder mehr
keine Wolken unter 1500 m und keine Kumulonimbus oder Gewitterwolken

METAR: ZSPD 271600Z 15004MPS CAVOK 29/26 Q1006 NOSIG

Zeit: 00:39 (16:39 UTC)

Prognose

Neuester Wetterbericht von vor 7 Stunden und 20 Minuten, um 09:19 UTC
Gültige Prognose vom 27 um 12 UTC bis 28 um 12 UTC
Wind 8 kt aus Ost/Südost
Sichtweite: 6000 m
Aufgelockert bewölkt in der Höhe von 2000 ft

TAF: ZSPD 270919Z 2712/2812 11004MPS 6000 SCT020 TX36/2806Z TN28/2720Z

Wetterbeobachtungen und Prognosen von mehr als 4000 Flughäfen (METAR und TAF Bericht).

Die verfügbaren Stationen werden durch gelbe und rote Markierungen auf der Karte dargestellt.

Führen Sie die Maus auf sie, um den Namen der Station zu sehen.

Darauf klicken, um die Beobachtung von Wetterbeobachtungen und Prognosen zu sehen.

Um die Karte zu ändern : klicken Sie auf den grünen Tasten mit einem schwarzen Kreuz Zum Vergrößern, auf den grünen Button mit einem Gedankenstrich zu verkleinern, oder auf die grünen Pfeile für benachbarte Karten.


METAR-TAF: